Time;durP1;ratioP1;P1;durP2;ratioP2;P2;SDS_P1;SDS_P2;PMS_P1;PMS_P2;Temp;Humidity;BMP_temperature;BMP_pressure;BME280_temperature;BME280_humidity;BME280_pressure;Samples;Min_cycle;Max_cycle;Signal;HPM_P1;HPM_P2
2022/06/08 00:01:10;;;;;;;4.88;2.10;;;;;;;;;;5013261;28;20089;-77
2022/06/08 00:03:45;;;;;;;4.38;2.28;;;;;;;;;;5012666;28;20025;-76
2022/06/08 00:06:12;;;;;;;6.78;2.40;;;;;;;;;;5012626;28;20050;-76
2022/06/08 00:08:37;;;;;;;5.18;2.30;;;;;;;;;;5012849;28;20390;-74
2022/06/08 00:11:03;;;;;;;3.97;2.30;;;;;;;;;;5011118;28;20026;-76
2022/06/08 00:13:29;;;;;;;6.00;2.30;;;;;;;;;;5012561;28;20040;-75
2022/06/08 00:15:55;;;;;;;5.18;2.25;;;;;;;;;;5012927;28;20092;-77
2022/06/08 00:18:21;;;;;;;4.75;2.20;;;;;;;;;;5012579;28;20279;-76
2022/06/08 00:20:50;;;;;;;7.97;2.08;;;;;;;;;;5011235;28;20053;-77
2022/06/08 00:23:16;;;;;;;4.43;2.35;;;;;;;;;;5012080;28;20543;-76
2022/06/08 00:25:41;;;;;;;4.40;2.28;;;;;;;;;;5012457;28;20068;-77
2022/06/08 00:28:07;;;;;;;5.97;2.60;;;;;;;;;;5012573;28;20492;-78
2022/06/08 00:30:33;;;;;;;7.05;2.30;;;;;;;;;;5012593;28;20034;-76
2022/06/08 00:32:59;;;;;;;5.50;2.20;;;;;;;;;;5012387;28;20030;-75
2022/06/08 00:35:25;;;;;;;7.05;2.83;;;;;;;;;;5012440;28;20030;-78
2022/06/08 00:37:50;;;;;;;3.53;2.30;;;;;;;;;;5012086;28;20030;-76
2022/06/08 00:40:19;;;;;;;5.25;2.17;;;;;;;;;;5012249;28;20077;-77
2022/06/08 00:42:45;;;;;;;5.88;2.40;;;;;;;;;;5011954;28;20038;-75
2022/06/08 00:45:19;;;;;;;5.30;2.20;;;;;;;;;;5012038;28;20226;-76
2022/06/08 00:47:51;;;;;;;5.38;2.30;;;;;;;;;;5011069;28;20022;-75
2022/06/08 00:50:30;;;;;;;7.55;2.30;;;;;;;;;;5011526;28;20025;-76
2022/06/08 00:53:00;;;;;;;6.45;2.20;;;;;;;;;;5011615;28;20105;-75
2022/06/08 00:55:29;;;;;;;3.43;2.00;;;;;;;;;;5012130;28;20033;-76
2022/06/08 00:57:58;;;;;;;8.98;2.25;;;;;;;;;;5011990;28;20276;-76
2022/06/08 01:00:32;;;;;;;3.88;2.42;;;;;;;;;;5011521;28;20558;-74
2022/06/08 01:02:58;;;;;;;8.52;2.50;;;;;;;;;;5010894;28;20030;-75
2022/06/08 01:05:35;;;;;;;4.07;2.05;;;;;;;;;;5010795;28;20033;-73
2022/06/08 01:08:11;;;;;;;6.03;2.33;;;;;;;;;;5010424;28;20018;-74
2022/06/08 01:10:43;;;;;;;4.15;2.17;;;;;;;;;;5011489;28;20049;-75
2022/06/08 01:13:09;;;;;;;4.97;2.55;;;;;;;;;;5011215;28;20076;-75
2022/06/08 01:15:36;;;;;;;8.80;2.50;;;;;;;;;;5011319;28;20427;-77
2022/06/08 01:18:04;;;;;;;7.45;2.80;;;;;;;;;;5011665;28;20084;-76
2022/06/08 01:20:29;;;;;;;4.82;2.30;;;;;;;;;;5011174;28;20068;-77
2022/06/08 01:22:55;;;;;;;4.75;2.30;;;;;;;;;;5011027;28;20070;-77
2022/06/08 01:25:21;;;;;;;4.75;2.05;;;;;;;;;;5011279;28;20037;-77
2022/06/08 01:28:14;;;;;;;4.43;2.42;;;;;;;;;;5011650;28;20030;-79
2022/06/08 01:31:13;;;;;;;4.82;2.30;;;;;;;;;;5011163;28;20064;-74
2022/06/08 01:33:46;;;;;;;4.47;2.30;;;;;;;;;;5010481;28;20088;-72
2022/06/08 01:36:19;;;;;;;5.10;2.58;;;;;;;;;;5010831;28;20093;-77
2022/06/08 01:39:19;;;;;;;5.53;2.47;;;;;;;;;;5011285;28;20113;-76
2022/06/08 01:42:03;;;;;;;4.22;2.50;;;;;;;;;;5009524;28;20034;-73
2022/06/08 01:44:37;;;;;;;4.75;2.38;;;;;;;;;;5010610;28;20045;-73
2022/06/08 01:47:14;;;;;;;4.45;2.45;;;;;;;;;;5010891;28;20032;-76
2022/06/08 01:50:10;;;;;;;6.80;2.50;;;;;;;;;;5010617;28;20113;-73
2022/06/08 01:52:42;;;;;;;4.10;2.28;;;;;;;;;;5010545;28;20393;-78
2022/06/08 01:55:31;;;;;;;5.43;2.45;;;;;;;;;;5009361;28;20555;-77
2022/06/08 01:58:26;;;;;;;5.70;2.70;;;;;;;;;;5010967;28;20026;-78
2022/06/08 02:01:03;;;;;;;6.50;2.80;;;;;;;;;;5006016;28;20041;-79
2022/06/08 02:03:39;;;;;;;8.85;2.47;;;;;;;;;;5010721;28;20482;-77
2022/06/08 02:06:12;;;;;;;5.05;2.25;;;;;;;;;;5010546;28;20037;-76
2022/06/08 02:08:51;;;;;;;5.90;2.65;;;;;;;;;;5010749;28;20037;-78
2022/06/08 02:11:21;;;;;;;5.07;2.63;;;;;;;;;;5010599;28;20026;-78
2022/06/08 02:13:53;;;;;;;5.53;2.75;;;;;;;;;;5010600;28;20030;-78
2022/06/08 02:16:26;;;;;;;5.28;2.70;;;;;;;;;;5010268;28;20105;-78
2022/06/08 02:19:05;;;;;;;6.82;2.65;;;;;;;;;;5010376;28;20057;-78
2022/06/08 02:21:41;;;;;;;5.97;2.70;;;;;;;;;;5010438;28;20026;-78
2022/06/08 02:24:33;;;;;;;7.78;2.72;;;;;;;;;;5010130;28;20060;-78
2022/06/08 02:27:03;;;;;;;6.70;2.60;;;;;;;;;;5010208;28;20034;-77
2022/06/08 02:29:36;;;;;;;6.95;2.58;;;;;;;;;;5010484;28;20583;-75
2022/06/08 02:34:28;;;;;;;7.10;2.70;;;;;;;;;;5010594;28;20437;-76
2022/06/08 02:34:58;;;;;;;3.97;2.45;;;;;;;;;;5009907;28;20394;-77
2022/06/08 02:37:29;;;;;;;5.22;2.90;;;;;;;;;;5010621;28;20508;-76
2022/06/08 02:40:24;;;;;;;5.18;2.40;;;;;;;;;;5010652;28;20474;-76
2022/06/08 02:42:53;;;;;;;6.80;2.38;;;;;;;;;;5010352;28;20034;-75
2022/06/08 02:45:30;;;;;;;4.10;2.45;;;;;;;;;;5010350;28;20642;-75
2022/06/08 02:48:01;;;;;;;4.35;2.65;;;;;;;;;;5010457;28;20033;-74
2022/06/08 02:50:27;;;;;;;4.85;2.40;;;;;;;;;;5010239;28;20502;-78
2022/06/08 02:53:07;;;;;;;3.90;2.40;;;;;;;;;;5010388;28;20029;-76
2022/06/08 02:55:46;;;;;;;4.70;2.22;;;;;;;;;;5010106;28;20057;-77
2022/06/08 02:58:21;;;;;;;6.10;2.80;;;;;;;;;;5010091;28;20107;-75
2022/06/08 03:01:08;;;;;;;6.20;2.70;;;;;;;;;;5009921;28;20080;-76
2022/06/08 03:03:45;;;;;;;6.32;2.78;;;;;;;;;;5008643;28;20030;-77
2022/06/08 03:06:15;;;;;;;7.95;2.80;;;;;;;;;;5009816;28;20520;-77
2022/06/08 03:09:03;;;;;;;6.25;2.42;;;;;;;;;;5009967;28;20099;-75
2022/06/08 03:11:35;;;;;;;6.57;2.42;;;;;;;;;;5009858;28;20041;-78
2022/06/08 03:14:07;;;;;;;5.43;2.45;;;;;;;;;;5009718;28;20061;-78
2022/06/08 03:16:41;;;;;;;4.68;2.55;;;;;;;;;;5010085;28;20442;-78
2022/06/08 03:19:08;;;;;;;7.43;2.55;;;;;;;;;;5010336;28;20028;-79
2022/06/08 03:21:35;;;;;;;4.55;2.53;;;;;;;;;;5009601;28;20129;-78
2022/06/08 03:24:01;;;;;;;4.45;2.35;;;;;;;;;;5009582;28;20413;-76
2022/06/08 03:26:35;;;;;;;4.80;2.45;;;;;;;;;;5010125;28;20081;-77
2022/06/08 03:29:00;;;;;;;6.43;2.38;;;;;;;;;;5011995;28;20433;-76
2022/06/08 03:31:26;;;;;;;4.55;2.40;;;;;;;;;;5012298;28;20474;-76
2022/06/08 03:33:51;;;;;;;5.30;2.60;;;;;;;;;;5013091;28;20544;-75
2022/06/08 03:36:16;;;;;;;6.53;2.50;;;;;;;;;;5013003;28;20018;-78
2022/06/08 03:38:45;;;;;;;7.93;2.55;;;;;;;;;;5013522;28;20485;-78
2022/06/08 03:41:10;;;;;;;5.47;2.40;;;;;;;;;;5013528;28;20021;-75
2022/06/08 03:43:36;;;;;;;7.95;2.45;;;;;;;;;;5013285;28;20101;-77
2022/06/08 03:46:04;;;;;;;4.38;2.35;;;;;;;;;;5013334;28;20695;-77
2022/06/08 03:48:31;;;;;;;3.65;2.33;;;;;;;;;;5013083;28;20022;-79
2022/06/08 03:50:59;;;;;;;6.20;2.67;;;;;;;;;;5012962;28;20029;-79
2022/06/08 03:53:37;;;;;;;5.13;2.47;;;;;;;;;;5013034;28;20018;-77
2022/06/08 03:56:05;;;;;;;6.28;2.35;;;;;;;;;;5013049;28;20037;-77
2022/06/08 03:58:32;;;;;;;7.38;2.35;;;;;;;;;;5012953;28;20022;-78
2022/06/08 04:00:57;;;;;;;4.63;2.38;;;;;;;;;;5012868;28;20029;-76
2022/06/08 04:03:23;;;;;;;7.47;2.50;;;;;;;;;;5012905;28;20113;-78
2022/06/08 04:05:49;;;;;;;4.47;2.50;;;;;;;;;;5012552;28;20033;-78
2022/06/08 04:08:14;;;;;;;4.50;2.40;;;;;;;;;;5012829;28;20022;-78
2022/06/08 04:10:40;;;;;;;6.75;2.47;;;;;;;;;;5012779;28;20022;-77
2022/06/08 04:13:05;;;;;;;5.72;2.40;;;;;;;;;;5012514;28;20030;-77
2022/06/08 04:15:43;;;;;;;6.57;2.70;;;;;;;;;;5012619;28;20045;-79
2022/06/08 04:18:20;;;;;;;4.75;2.60;;;;;;;;;;5012634;28;20489;-77
2022/06/08 04:20:49;;;;;;;4.45;2.30;;;;;;;;;;5011251;28;20030;-78
2022/06/08 04:23:16;;;;;;;6.43;2.80;;;;;;;;;;5012448;28;20406;-77
2022/06/08 04:25:42;;;;;;;6.00;2.80;;;;;;;;;;5012119;28;20034;-78
2022/06/08 04:28:09;;;;;;;7.55;2.83;;;;;;;;;;5012054;28;20109;-77
2022/06/08 04:30:35;;;;;;;5.40;2.92;;;;;;;;;;5012507;28;20478;-77
2022/06/08 04:33:01;;;;;;;5.45;2.75;;;;;;;;;;5012536;28;20401;-79
2022/06/08 04:35:27;;;;;;;6.05;2.95;;;;;;;;;;5012071;28;20033;-77
2022/06/08 04:37:53;;;;;;;10.30;3.03;;;;;;;;;;5012169;28;20537;-79
2022/06/08 04:40:20;;;;;;;6.35;3.20;;;;;;;;;;5011454;28;20113;-77
2022/06/08 04:42:46;;;;;;;4.60;2.67;;;;;;;;;;5012071;28;20037;-77
2022/06/08 04:45:11;;;;;;;6.35;2.90;;;;;;;;;;5011812;28;20060;-77
2022/06/08 04:47:37;;;;;;;7.00;2.80;;;;;;;;;;5012087;28;20040;-78
2022/06/08 04:50:05;;;;;;;6.82;2.92;;;;;;;;;;5011844;28;20480;-78
2022/06/08 04:52:31;;;;;;;6.97;2.88;;;;;;;;;;5011949;28;20025;-79
2022/06/08 04:54:57;;;;;;;5.25;2.78;;;;;;;;;;5011847;28;20583;-77
2022/06/08 04:57:22;;;;;;;5.13;2.72;;;;;;;;;;5012073;28;20631;-78
2022/06/08 04:59:48;;;;;;;6.07;2.60;;;;;;;;;;5011635;28;20049;-76
2022/06/08 05:02:42;;;;;;;6.28;2.80;;;;;;;;;;5011762;28;20498;-78
2022/06/08 05:04:59;;;;;;;5.45;2.92;;;;;;;;;;5011440;28;20623;-79
2022/06/08 05:07:24;;;;;;;5.07;2.50;;;;;;;;;;5011350;28;20151;-77
2022/06/08 05:09:49;;;;;;;5.07;2.60;;;;;;;;;;5011718;28;20040;-76
2022/06/08 05:12:16;;;;;;;8.85;3.17;;;;;;;;;;5011592;28;20410;-76
2022/06/08 05:14:42;;;;;;;8.30;2.80;;;;;;;;;;5011391;28;20037;-76
2022/06/08 05:17:07;;;;;;;6.47;3.17;;;;;;;;;;5011357;28;20033;-77
2022/06/08 05:19:33;;;;;;;7.15;3.20;;;;;;;;;;5011788;28;20420;-77
2022/06/08 05:21:58;;;;;;;5.95;2.90;;;;;;;;;;5011119;28;20036;-77
2022/06/08 05:24:23;;;;;;;9.32;3.20;;;;;;;;;;5010730;28;20064;-75
2022/06/08 05:26:49;;;;;;;7.43;3.25;;;;;;;;;;5011306;28;20081;-78
2022/06/08 05:29:14;;;;;;;8.38;3.42;;;;;;;;;;5011198;28;20034;-75
2022/06/08 05:31:40;;;;;;;9.85;3.80;;;;;;;;;;5011096;28;20544;-77
2022/06/08 05:34:05;;;;;;;9.68;3.67;;;;;;;;;;5010545;28;20041;-79
2022/06/08 05:36:31;;;;;;;11.20;3.58;;;;;;;;;;5010814;28;20121;-77
2022/06/08 05:38:56;;;;;;;7.07;3.00;;;;;;;;;;5010898;28;20486;-75
2022/06/08 05:41:21;;;;;;;8.00;3.15;;;;;;;;;;5011153;28;20034;-78
2022/06/08 05:43:47;;;;;;;9.32;3.90;;;;;;;;;;5011010;28;20022;-78
2022/06/08 05:46:12;;;;;;;10.48;3.60;;;;;;;;;;5010641;28;20026;-79
2022/06/08 05:48:38;;;;;;;9.40;3.95;;;;;;;;;;5010832;28;20049;-77
2022/06/08 05:51:03;;;;;;;8.55;3.45;;;;;;;;;;5010496;28;20022;-77
2022/06/08 05:53:29;;;;;;;8.85;3.75;;;;;;;;;;5010530;28;20145;-77
2022/06/08 05:55:54;;;;;;;9.20;3.47;;;;;;;;;;5010395;28;20041;-76
2022/06/08 05:58:19;;;;;;;11.95;3.50;;;;;;;;;;5010660;28;20036;-76
2022/06/08 06:00:45;;;;;;;8.25;3.00;;;;;;;;;;5010720;28;20462;-78
2022/06/08 06:03:10;;;;;;;9.23;3.30;;;;;;;;;;5010845;28;20030;-76
2022/06/08 06:05:38;;;;;;;10.80;3.22;;;;;;;;;;5010211;28;20445;-79
2022/06/08 06:08:05;;;;;;;12.88;3.10;;;;;;;;;;5010494;28;20021;-78
2022/06/08 06:10:31;;;;;;;9.00;3.08;;;;;;;;;;5010932;28;20026;-77
2022/06/08 06:12:57;;;;;;;6.68;2.90;;;;;;;;;;5010537;28;20034;-82
2022/06/08 06:15:24;;;;;;;15.15;3.30;;;;;;;;;;5010183;28;20370;-77
2022/06/08 06:17:51;;;;;;;6.55;2.60;;;;;;;;;;5008205;28;20026;-77
2022/06/08 06:20:17;;;;;;;10.20;2.85;;;;;;;;;;5009959;28;20492;-76
2022/06/08 06:22:43;;;;;;;7.40;2.35;;;;;;;;;;5009562;28;20640;-74
2022/06/08 06:25:09;;;;;;;7.80;2.78;;;;;;;;;;5010104;28;20025;-73
2022/06/08 06:27:35;;;;;;;7.15;2.63;;;;;;;;;;5010258;28;20033;-81
2022/06/08 06:30:01;;;;;;;8.30;2.60;;;;;;;;;;5010060;28;20113;-78
2022/06/08 06:32:29;;;;;;;5.03;2.15;;;;;;;;;;5009873;28;20037;-79
2022/06/08 06:34:57;;;;;;;5.32;2.30;;;;;;;;;;5009239;28;20113;-78
2022/06/08 06:37:23;;;;;;;7.53;2.17;;;;;;;;;;5010151;28;20018;-79
2022/06/08 06:39:48;;;;;;;9.27;2.15;;;;;;;;;;5010588;28;20026;-79
2022/06/08 06:42:34;;;;;;;6.85;1.80;;;;;;;;;;5016721;28;20317;-79
2022/06/08 06:45:00;;;;;;;7.60;2.00;;;;;;;;;;5021281;28;20030;-76
2022/06/08 06:47:25;;;;;;;6.45;1.90;;;;;;;;;;5021253;28;20309;-80
2022/06/08 06:49:51;;;;;;;5.18;1.80;;;;;;;;;;5021464;28;20277;-81
2022/06/08 06:52:18;;;;;;;9.15;2.10;;;;;;;;;;5020742;28;20032;-80
2022/06/08 06:54:45;;;;;;;6.55;1.83;;;;;;;;;;5020729;28;20048;-78
2022/06/08 06:57:10;;;;;;;9.40;1.95;;;;;;;;;;5021139;28;20102;-77
2022/06/08 06:59:36;;;;;;;7.60;2.15;;;;;;;;;;5021560;28;20080;-81
2022/06/08 07:02:02;;;;;;;6.18;1.90;;;;;;;;;;5018502;28;20064;-81
2022/06/08 07:04:28;;;;;;;6.13;2.25;;;;;;;;;;5023688;28;20049;-81
2022/06/08 07:06:53;;;;;;;5.88;2.00;;;;;;;;;;5023716;28;20030;-77
2022/06/08 07:09:19;;;;;;;5.82;1.70;;;;;;;;;;5014263;28;20025;-73
2022/06/08 07:11:45;;;;;;;4.32;1.65;;;;;;;;;;5012842;28;20029;-81
2022/06/08 07:14:14;;;;;;;9.25;1.88;;;;;;;;;;5014037;28;20018;-81
2022/06/08 07:16:40;;;;;;;5.22;1.80;;;;;;;;;;5013527;28;20057;-77
2022/06/08 07:19:06;;;;;;;5.38;1.70;;;;;;;;;;5013691;28;20096;-75
2022/06/08 07:21:32;;;;;;;5.07;1.70;;;;;;;;;;5013378;28;20046;-76
2022/06/08 07:23:58;;;;;;;8.25;1.90;;;;;;;;;;5013340;28;20085;-80
2022/06/08 07:26:25;;;;;;;5.72;1.88;;;;;;;;;;5013145;28;20120;-79
2022/06/08 07:28:53;;;;;;;7.40;1.85;;;;;;;;;;5013440;28;20032;-77
2022/06/08 07:31:20;;;;;;;7.30;2.33;;;;;;;;;;5013543;28;20037;-79
2022/06/08 07:33:45;;;;;;;7.63;2.08;;;;;;;;;;5013603;28;20018;-71
2022/06/08 07:36:11;;;;;;;9.23;2.10;;;;;;;;;;5012044;28;20032;-76
2022/06/08 07:38:36;;;;;;;5.30;2.13;;;;;;;;;;5020337;28;20021;-76
2022/06/08 07:41:02;;;;;;;3.97;1.60;;;;;;;;;;5027317;28;20026;-76
2022/06/08 07:43:28;;;;;;;5.05;1.77;;;;;;;;;;5013143;28;20026;-74
2022/06/08 07:45:53;;;;;;;6.65;2.10;;;;;;;;;;5022828;28;20048;-75
2022/06/08 07:51:03;;;;;;;9.75;1.92;;;;;;;;;;5032810;28;20067;-75
2022/06/08 07:53:29;;;;;;;9.55;1.85;;;;;;;;;;5030099;28;20044;-80
2022/06/08 07:55:55;;;;;;;6.53;2.17;;;;;;;;;;5012578;28;20030;-80
2022/06/08 07:58:20;;;;;;;5.63;2.00;;;;;;;;;;5012869;28;20029;-79
2022/06/08 08:00:49;;;;;;;4.60;1.95;;;;;;;;;;5012732;28;20026;-78
2022/06/08 08:03:18;;;;;;;7.13;2.33;;;;;;;;;;5010025;28;20037;-80
2022/06/08 08:05:45;;;;;;;6.35;2.40;;;;;;;;;;5012207;28;20044;-78
2022/06/08 08:08:12;;;;;;;5.45;2.20;;;;;;;;;;5012391;28;20402;-72
2022/06/08 08:10:38;;;;;;;5.78;2.53;;;;;;;;;;5012962;28;20026;-76
2022/06/08 08:13:04;;;;;;;8.07;2.50;;;;;;;;;;5012301;28;20026;-78
2022/06/08 08:15:30;;;;;;;10.30;2.85;;;;;;;;;;5010864;28;20029;-76
2022/06/08 08:17:56;;;;;;;7.25;2.50;;;;;;;;;;5012302;28;20030;-78
2022/06/08 08:20:24;;;;;;;7.53;2.75;;;;;;;;;;5012625;28;20033;-74
2022/06/08 08:22:50;;;;;;;7.25;2.70;;;;;;;;;;5012258;28;20070;-77
2022/06/08 08:25:17;;;;;;;6.18;2.55;;;;;;;;;;5012405;28;20026;-78
2022/06/08 08:27:43;;;;;;;6.47;2.38;;;;;;;;;;5012142;28;20026;-77
2022/06/08 08:30:11;;;;;;;6.57;2.40;;;;;;;;;;5012666;28;20022;-77
2022/06/08 08:32:37;;;;;;;8.35;2.67;;;;;;;;;;5012168;28;20088;-77
2022/06/08 08:35:03;;;;;;;5.22;2.20;;;;;;;;;;5012049;28;20030;-78
2022/06/08 08:37:31;;;;;;;4.45;2.40;;;;;;;;;;5011938;28;20058;-76
2022/06/08 08:39:57;;;;;;;7.75;2.42;;;;;;;;;;5012372;28;20029;-70
2022/06/08 08:42:22;;;;;;;7.80;2.47;;;;;;;;;;5014504;28;20108;-76
2022/06/08 08:44:53;;;;;;;5.28;2.53;;;;;;;;;;5011888;28;20022;-77
2022/06/08 08:47:26;;;;;;;5.40;2.25;;;;;;;;;;5011638;28;20030;-76
2022/06/08 08:49:55;;;;;;;6.35;2.42;;;;;;;;;;5015203;28;20060;-77
2022/06/08 08:52:24;;;;;;;6.25;2.63;;;;;;;;;;5011873;28;20068;-77
2022/06/08 08:54:57;;;;;;;6.43;3.28;;;;;;;;;;5011822;28;20033;-77
2022/06/08 08:58:03;;;;;;;5.45;2.80;;;;;;;;;;5013166;28;20022;-76
2022/06/08 09:00:43;;;;;;;6.70;2.80;;;;;;;;;;5008317;28;20333;-76
2022/06/08 09:03:26;;;;;;;7.63;2.80;;;;;;;;;;5013041;28;20096;-76
2022/06/08 09:06:16;;;;;;;6.03;2.40;;;;;;;;;;5018046;28;20324;-76
2022/06/08 09:08:44;;;;;;;6.10;2.53;;;;;;;;;;5008555;28;20038;-77
2022/06/08 09:11:16;;;;;;;5.75;2.65;;;;;;;;;;5013786;28;20076;-76
2022/06/08 09:13:58;;;;;;;6.68;2.80;;;;;;;;;;5012122;28;20022;-76
2022/06/08 09:16:37;;;;;;;6.57;3.00;;;;;;;;;;5011176;28;20029;-72
2022/06/08 09:19:29;;;;;;;5.95;2.67;;;;;;;;;;5011879;28;20099;-73
2022/06/08 09:21:55;;;;;;;6.30;3.13;;;;;;;;;;5010248;28;20211;-73
2022/06/08 09:24:28;;;;;;;7.72;2.70;;;;;;;;;;5016305;28;20080;-74
2022/06/08 09:27:12;;;;;;;8.82;2.90;;;;;;;;;;5013027;28;20141;-73
2022/06/08 09:29:51;;;;;;;5.97;3.05;;;;;;;;;;5013574;28;20075;-73
2022/06/08 09:32:49;;;;;;;6.22;2.60;;;;;;;;;;5011508;28;20188;-74
2022/06/08 09:35:33;;;;;;;6.53;2.75;;;;;;;;;;5010461;28;20038;-74
2022/06/08 09:38:03;;;;;;;4.63;2.33;;;;;;;;;;5008656;28;20033;-73
2022/06/08 09:40:37;;;;;;;5.57;2.60;;;;;;;;;;5009141;28;20030;-74
2022/06/08 09:43:18;;;;;;;6.78;2.70;;;;;;;;;;5009270;28;20076;-74
2022/06/08 09:45:55;;;;;;;5.82;2.63;;;;;;;;;;5009025;28;20026;-74
2022/06/08 09:51:40;;;;;;;6.00;2.88;;;;;;;;;;5010190;28;20552;-73
2022/06/08 09:54:26;;;;;;;5.10;2.45;;;;;;;;;;5011862;28;20041;-75
2022/06/08 09:57:09;;;;;;;6.18;3.05;;;;;;;;;;5016718;28;20026;-76
2022/06/08 10:00:03;;;;;;;7.35;2.90;;;;;;;;;;5010951;28;20030;-73
2022/06/08 10:03:17;;;;;;;8.45;3.40;;;;;;;;;;5010741;28;20034;-74
2022/06/08 10:05:45;;;;;;;6.75;2.70;;;;;;;;;;4973539;28;20045;-77
2022/06/08 10:08:32;;;;;;;7.10;2.90;;;;;;;;;;4992261;28;20105;-72
2022/06/08 10:11:36;;;;;;;5.28;2.80;;;;;;;;;;5006834;28;20038;-77
2022/06/08 10:14:07;;;;;;;5.53;2.80;;;;;;;;;;5011577;28;20030;-73
2022/06/08 10:16:38;;;;;;;5.45;3.13;;;;;;;;;;5015413;28;20253;-73
2022/06/08 10:19:09;;;;;;;8.68;3.00;;;;;;;;;;5012048;28;20037;-77
2022/06/08 10:21:41;;;;;;;6.60;3.20;;;;;;;;;;5010497;28;20390;-75
2022/06/08 10:24:16;;;;;;;7.53;3.55;;;;;;;;;;5011561;28;20061;-72
2022/06/08 10:26:44;;;;;;;7.55;3.78;;;;;;;;;;5010887;28;20025;-72
2022/06/08 10:29:23;;;;;;;11.15;3.67;;;;;;;;;;5010525;28;20030;-86
2022/06/08 10:32:13;;;;;;;6.43;3.55;;;;;;;;;;5010416;28;20048;-74
2022/06/08 10:34:38;;;;;;;9.02;3.50;;;;;;;;;;5015501;28;20111;-70
2022/06/08 10:37:18;;;;;;;7.45;3.28;;;;;;;;;;5027134;28;20034;-73
2022/06/08 10:39:49;;;;;;;6.80;3.20;;;;;;;;;;5014020;28;20022;-74
2022/06/08 10:42:46;;;;;;;5.40;2.95;;;;;;;;;;5024293;28;20071;-73
2022/06/08 10:45:20;;;;;;;6.53;3.17;;;;;;;;;;5033864;28;20021;-70
2022/06/08 10:47:57;;;;;;;6.22;3.00;;;;;;;;;;5033587;28;20021;-71
2022/06/08 10:50:33;;;;;;;6.90;3.25;;;;;;;;;;5028717;28;20108;-70
2022/06/08 10:56:23;;;;;;;6.35;2.92;;;;;;;;;;5013903;28;20532;-70
2022/06/08 10:59:07;;;;;;;5.70;3.08;;;;;;;;;;5013897;28;20044;-69
2022/06/08 11:01:40;;;;;;;6.93;2.85;;;;;;;;;;5019131;28;20038;-70
2022/06/08 11:07:13;;;;;;;6.97;2.97;;;;;;;;;;5020521;28;20029;-70
2022/06/08 11:09:44;;;;;;;7.53;3.10;;;;;;;;;;5019974;28;20021;-70
2022/06/08 11:12:12;;;;;;;6.15;3.30;;;;;;;;;;5023063;28;20033;-70
2022/06/08 11:14:44;;;;;;;6.22;3.10;;;;;;;;;;5014422;28;20030;-70
2022/06/08 11:17:20;;;;;;;6.57;3.38;;;;;;;;;;5014127;28;20030;-69
2022/06/08 11:19:47;;;;;;;5.93;3.00;;;;;;;;;;5014300;28;20037;-72
2022/06/08 11:22:21;;;;;;;6.22;3.03;;;;;;;;;;5014947;28;20033;-71
2022/06/08 11:24:51;;;;;;;6.70;3.05;;;;;;;;;;5012406;28;20038;-73
2022/06/08 11:27:37;;;;;;;6.95;3.05;;;;;;;;;;5013053;28;20031;-73
2022/06/08 11:30:23;;;;;;;8.38;3.10;;;;;;;;;;5013468;28;20056;-73
2022/06/08 11:32:51;;;;;;;8.73;3.28;;;;;;;;;;5013391;28;20424;-72
2022/06/08 11:35:35;;;;;;;6.60;3.35;;;;;;;;;;5013116;28;20065;-73
2022/06/08 11:38:35;;;;;;;6.00;3.33;;;;;;;;;;5013196;28;20033;-71
2022/06/08 11:41:28;;;;;;;7.78;3.60;;;;;;;;;;5013107;28;20108;-70
2022/06/08 11:43:53;;;;;;;6.70;3.20;;;;;;;;;;5013156;28;20038;-73
2022/06/08 11:46:41;;;;;;;5.43;3.22;;;;;;;;;;5013032;28;20037;-73
2022/06/08 11:49:27;;;;;;;6.63;3.50;;;;;;;;;;5012634;28;20546;-73
2022/06/08 11:51:52;;;;;;;7.68;3.50;;;;;;;;;;5012930;28;20406;-71
2022/06/08 11:54:25;;;;;;;6.40;3.72;;;;;;;;;;5012763;28;20036;-73
2022/06/08 11:57:02;;;;;;;8.57;3.53;;;;;;;;;;5012739;28;20062;-75
2022/06/08 11:59:33;;;;;;;5.85;3.38;;;;;;;;;;5012728;28;20026;-74
2022/06/08 12:02:13;;;;;;;7.88;3.40;;;;;;;;;;5012545;28;20080;-73
2022/06/08 12:04:45;;;;;;;4.38;3.10;;;;;;;;;;5012791;28;20032;-70
2022/06/08 12:08:01;;;;;;;5.28;3.20;;;;;;;;;;5012278;28;20041;-72
2022/06/08 12:10:29;;;;;;;5.53;3.50;;;;;;;;;;4996117;28;20092;-74
2022/06/08 12:12:55;;;;;;;7.07;3.40;;;;;;;;;;5012564;28;20068;-71
2022/06/08 12:15:25;;;;;;;5.60;2.95;;;;;;;;;;5012188;28;20053;-72
2022/06/08 12:17:50;;;;;;;7.43;3.40;;;;;;;;;;5012304;28;20030;-72
2022/06/08 12:20:37;;;;;;;5.82;3.05;;;;;;;;;;5012254;28;20037;-71
2022/06/08 12:23:03;;;;;;;7.38;3.10;;;;;;;;;;5012188;28;20528;-73
2022/06/08 12:25:31;;;;;;;9.70;3.00;;;;;;;;;;5012223;28;20022;-70
2022/06/08 12:28:11;;;;;;;5.22;2.70;;;;;;;;;;5011978;28;20022;-73
2022/06/08 12:30:47;;;;;;;7.60;2.97;;;;;;;;;;5012010;28;20054;-73
2022/06/08 12:33:18;;;;;;;7.57;2.90;;;;;;;;;;5011763;28;20104;-75
2022/06/08 12:35:57;;;;;;;5.63;2.75;;;;;;;;;;5011639;28;20030;-74
2022/06/08 12:38:28;;;;;;;6.57;2.78;;;;;;;;;;5011836;28;20497;-74
2022/06/08 12:41:15;;;;;;;6.18;2.58;;;;;;;;;;5012121;28;20092;-74
2022/06/08 12:43:48;;;;;;;3.55;2.03;;;;;;;;;;5012333;28;20176;-73
2022/06/08 12:46:15;;;;;;;5.43;2.08;;;;;;;;;;5011738;28;20453;-74
2022/06/08 12:48:46;;;;;;;3.35;1.95;;;;;;;;;;5011695;28;20080;-72
2022/06/08 12:51:33;;;;;;;5.68;2.30;;;;;;;;;;5011439;28;20033;-73
2022/06/08 12:54:02;;;;;;;4.40;2.38;;;;;;;;;;5011334;28;20026;-73
2022/06/08 12:56:28;;;;;;;6.38;2.20;;;;;;;;;;5011432;28;20044;-73
2022/06/08 12:58:55;;;;;;;4.65;1.75;;;;;;;;;;5011619;28;20075;-73
2022/06/08 13:01:23;;;;;;;3.22;1.52;;;;;;;;;;5010546;28;20034;-71
2022/06/08 13:03:49;;;;;;;3.92;1.70;;;;;;;;;;5011271;28;20473;-71
2022/06/08 13:06:15;;;;;;;4.55;1.67;;;;;;;;;;5011258;28;20087;-72
2022/06/08 13:08:41;;;;;;;2.72;1.80;;;;;;;;;;5010832;28;20486;-72
2022/06/08 13:11:14;;;;;;;3.42;1.38;;;;;;;;;;5011541;28;20044;-71
2022/06/08 13:13:40;;;;;;;3.47;1.55;;;;;;;;;;5011211;28;20040;-73
2022/06/08 13:16:26;;;;;;;4.70;1.50;;;;;;;;;;5011139;28;20034;-72
2022/06/08 13:18:54;;;;;;;2.60;1.38;;;;;;;;;;5011238;28;20083;-73
2022/06/08 13:21:21;;;;;;;3.85;1.50;;;;;;;;;;5010946;28;20393;-72
2022/06/08 13:23:47;;;;;;;2.60;1.52;;;;;;;;;;5010975;28;20046;-70
2022/06/08 13:26:20;;;;;;;3.28;1.50;;;;;;;;;;5010812;28;20026;-71
2022/06/08 13:28:46;;;;;;;2.58;1.50;;;;;;;;;;5010857;28;20041;-72
2022/06/08 13:31:12;;;;;;;3.55;1.50;;;;;;;;;;5010946;28;20473;-73
2022/06/08 13:33:56;;;;;;;3.83;1.50;;;;;;;;;;5011258;28;20109;-75
2022/06/08 13:36:42;;;;;;;2.20;1.58;;;;;;;;;;5010370;28;20030;-81
2022/06/08 13:39:30;;;;;;;2.15;1.45;;;;;;;;;;5011089;28;20338;-73
2022/06/08 13:42:03;;;;;;;3.40;1.42;;;;;;;;;;5013755;28;20022;-73
2022/06/08 13:44:31;;;;;;;2.75;1.50;;;;;;;;;;5013664;28;20022;-73
2022/06/08 13:47:21;;;;;;;3.90;1.40;;;;;;;;;;5010953;28;20037;-72
2022/06/08 13:49:55;;;;;;;2.53;1.60;;;;;;;;;;5017116;28;20088;-73
2022/06/08 13:52:26;;;;;;;2.90;1.40;;;;;;;;;;5018288;28;20038;-73
2022/06/08 13:54:55;;;;;;;1.88;1.13;;;;;;;;;;5013254;28;20052;-75
2022/06/08 13:57:23;;;;;;;4.22;1.25;;;;;;;;;;5014177;28;20029;-75
2022/06/08 13:59:52;;;;;;;4.63;1.30;;;;;;;;;;5018537;28;20029;-73
2022/06/08 14:02:25;;;;;;;2.58;1.38;;;;;;;;;;5017786;28;20034;-75
2022/06/08 14:04:53;;;;;;;2.33;1.20;;;;;;;;;;5013335;28;20165;-74
2022/06/08 14:13:21;;;;;;;2.75;1.13;;;;;;;;;;5012148;28;20117;-71
2022/06/08 14:15:47;;;;;;;1.30;1.00;;;;;;;;;;5010527;28;20022;-74
2022/06/08 14:18:19;;;;;;;3.33;1.23;;;;;;;;;;5013637;28;20025;-74
2022/06/08 14:20:45;;;;;;;4.45;1.17;;;;;;;;;;5012455;28;20048;-77
2022/06/08 14:23:15;;;;;;;1.70;1.10;;;;;;;;;;5012380;28;20397;-73
2022/06/08 14:25:41;;;;;;;1.67;1.10;;;;;;;;;;5012480;28;20028;-74
2022/06/08 14:28:08;;;;;;;1.90;1.13;;;;;;;;;;5014658;28;20272;-74
2022/06/08 14:30:35;;;;;;;2.70;1.10;;;;;;;;;;5012145;28;20018;-74
2022/06/08 14:33:06;;;;;;;5.78;1.27;;;;;;;;;;5015077;28;20030;-74
2022/06/08 14:35:43;;;;;;;7.43;1.20;;;;;;;;;;5019905;28;20441;-76
2022/06/08 14:38:14;;;;;;;1.98;1.13;;;;;;;;;;5016689;28;20117;-77
2022/06/08 14:40:41;;;;;;;;;;;;;;;;;;5013457;28;20562;-72
2022/06/08 14:43:07;;;;;;;2.38;1.00;;;;;;;;;;5018535;28;19913;-76
2022/06/08 14:45:37;;;;;;;4.05;1.00;;;;;;;;;;5032989;28;20221;-74
2022/06/08 14:48:09;;;;;;;2.33;1.02;;;;;;;;;;5043547;28;20022;-76
2022/06/08 14:50:35;;;;;;;2.22;0.88;;;;;;;;;;5026221;28;20112;-79
2022/06/08 14:53:00;;;;;;;4.35;1.30;;;;;;;;;;5025091;28;20025;-80
2022/06/08 14:58:15;;;;;;;1.83;1.00;;;;;;;;;;5025780;28;20107;-80
2022/06/08 15:00:41;;;;;;;2.80;1.05;;;;;;;;;;5026888;28;20030;-83
2022/06/08 15:03:08;;;;;;;3.58;1.05;;;;;;;;;;5020705;28;20058;-86
2022/06/08 15:05:35;;;;;;;2.25;0.98;;;;;;;;;;5016870;28;20057;-78
2022/06/08 15:08:01;;;;;;;1.38;0.93;;;;;;;;;;5018898;28;20096;-82
2022/06/08 15:10:28;;;;;;;3.47;1.00;;;;;;;;;;5012869;28;20033;-86
2022/06/08 15:12:58;;;;;;;6.07;1.10;;;;;;;;;;5010980;28;20105;-85
2022/06/08 15:15:26;;;;;;;3.95;1.05;;;;;;;;;;5009443;28;20034;-86
2022/06/08 15:17:56;;;;;;;5.68;1.13;;;;;;;;;;5010748;28;20054;-84
2022/06/08 15:20:29;;;;;;;1.45;1.00;;;;;;;;;;5010690;28;20030;-88
2022/06/08 15:22:59;;;;;;;1.63;1.00;;;;;;;;;;5012584;28;20042;-86
2022/06/08 15:25:29;;;;;;;2.22;1.10;;;;;;;;;;5015770;28;20033;-79
2022/06/08 15:27:58;;;;;;;3.13;1.00;;;;;;;;;;5019548;28;20034;-88
2022/06/08 15:30:31;;;;;;;1.52;0.93;;;;;;;;;;5017004;28;20473;-85